Nashville International Airport
KBNA : now visible

Airfield :











YOU CAN JOIN US ON...

 
LOGIN :

Register | Disclaimer

   EN    FR    IT 

 









Legend :    VFR   Marginal VFR   IFR   Intensive IFR   Very Intensive IFR
Visi :
Ceiling :
>= 8 km
>= 3000ft
5 to 8 km
1000 to 3000 ft
1500m to 5 km
500 to 1000 ft
800 to 1500m
200 to 500 ft
< 800m
< 200 ft
Symbols :   Thunderstorms  Fog  Heavy snow  Heavy precipitations  Wind > 20 kt






- Airport Elevation : 599 ft
- IATA code : BNA


KBNA - Nashville International

CURRENT METAR :
  • 161212Z 02007KT 4SM -RA BR BKN003 OVC008 12/11 A2998 RMK AO2 LTG DSNT W P0002 T01220106

EXPIRED METARs :
  • 161201Z 01003KT 3SM -RA BR SCT003 OVC008 13/11 A2997 RMK AO2 LTG DSNT SE-W CIG 005V009 P0001 T01280111
  • 161153Z 01005KT 2 1/2SM -RA BR OVC006 13/11 A2997 RMK AO2 LTG DSNT S AND W SLP147 P0011 60031 70031 T01280111 10178 20128 53008
  • 161137Z 36007KT 2 1/2SM -RA BR OVC005 13/12 A2997 RMK AO2 LTG DSNT SW P0005 T01330117
  • 161122Z 00000KT 1 1/2SM R02L/6000VP6000FT -RA BR BKN007 OVC012 14/13 A2997 RMK AO2 P0004 T01440133
  • 161114Z 00000KT 2SM -RA BR BKN008 OVC012 15/13 A2996 RMK AO2 P0003 T01500133
  • 161053Z 00000KT 2 1/2SM -RA BR OVC012 15/13 A2996 RMK AO2 SLP143 P0005 T01500133
  • 161023Z 00000KT 2 1/2SM -RA BR BKN014 OVC020 14/13 A2995 RMK AO2 LTG DSNT NW P0002 T01440133
  • 160953Z 00000KT 4SM -RA BR OVC017 15/13 A2995 RMK AO2 LTG DSNT SE AND S SLP141 P0003 T01500128

TAF KBNA
Valid from the 16 at 12:00 until the 17 at 12:00 UTC


161222Z 1612/1712 02007KT 5SM -RA BR SCT003 OVC008
TEMPO 1612/1615 2SM RA BR OVC003
FM161500 19007KT P6SM OVC020
FM162200 20012G22KT 5SM -SHRA OVC020
TEMPO 1622/1702 2SM TSRA OVC007CB
FM170200 31008KT 5SM -RA OVC003
FM170600 31009G18KT P6SM OVC003



MET'MAP, your aeronautical weather chart ! - Copyright ORBIFLY December 2007 - Disclaimer

ORBIFLY MET'MAP TEAM :

Programming & Development : Alexandra Zaïnal
Concept & original design : Baudouin d'Aumeries
Assistance for programming : Marc-Olivier Méhu
Technical & hardware support : Manuel Goepfert

Contact : metmap@orbifly.com




SOURCES & CREDITS :

   NOAA       Earth
Advisory